Puerto Banus, Marbella

>

This is an optional block (switch it off / on) in the settings - file ($SITE['banners'] = false;)

You can display ads, any other important text or photo’s using text / html or PHP code.

You can place one or more at the top and or bottom and it can all be different for content / size .



Meteosat more information blitzortung!


Radar lluvias  rain snow radar


Visita nuestra red de sitios de meteo:

Documentation for the template used

MeteoibericaRed estaciones Meteorologicas

MeteoclimaticRed estaciones Meteorologicas



Viento Desde: 19-04-2018 23:00 Hasta: 21-04-2018 04:59 Advertencias para: Viento Nivel: Amarillo info button

Informes METAR proximidad

   
EBAW - Antwerp
Actualización: 20-04-2018 06:50
Claros  
Claros  
   Viento: SSE 3.7 km/h
Viento: SSE 3.7 km/h
Temperatura: 12°C
Punto de rocío: 9°C
Humedad: 82%
Baromètro: 1023 hPa
Visibilidad: More than 10 km
detalles de la nube: Claros
EBAW 200450Z 15002KT CAVOK 12/09 Q1023 NOSIG
EBLG - Liège
Actualización: 20-04-2018 06:50
Claros  
Claros  
   Viento: SSE 14.8 km/h
Viento: SSE 14.8 km/h
Temperatura: 15°C
Punto de rocío: 9°C
Humedad: 68%
Baromètro: 1024 hPa
Visibilidad: More than 10 km
detalles de la nube: Claros
EBLG 200450Z 15008KT CAVOK 15/09 Q1024 NOSIG
EBCV - Mons/Bergen
Actualización: 20-04-2018 06:55
Claros  
Claros  
   Viento: calma
Viento: calma
Temperatura: 12°C
Punto de rocío: 10°C
Humedad: 88%
Baromètro: 1023 hPa
Nublado: Claros
Visibilidad: More than 10 km
detalles de la nube: Claros
EBCV 200455Z AUTO 00000KT 9999 NCD 12/10 Q1023 BLU
EHBK - Maastricht
Actualización: 20-04-2018 06:55
Claros  
Claros  
   Viento: South 11.1 km/h
Viento: South 11.1 km/h
Temperatura: 12°C
Punto de rocío: 8°C
Humedad: 77%
Baromètro: 1023 hPa
Nublado: Claros
Visibilidad: More than 10 km
detalles de la nube: Claros
EHBK 200455Z AUTO 19006KT 9999 NCD 12/08 Q1023 NOSIG
ELLX - Luxemburg
Actualización: 20-04-2018 06:50
Claros  
Claros  
   Viento: North 11.1 km/h
Viento: North 11.1 km/h
Temperatura: 13°C
Punto de rocío: 8°C
Humedad: 72%
Baromètro: 1024 hPa
Visibilidad: More than 10 km
detalles de la nube: Claros
ELLX 200450Z 01006KT 330V040 CAVOK 13/08 Q1024 NOSIG
EBOS - Oostende
Actualización: 20-04-2018 06:50
Niebla, Parcialmente Nublado  
Niebla, Parcialmente Nublado  
   Viento: NW 5.6 km/h
Viento: NW 5.6 km/h
Temperatura: 11°C
Punto de rocío: 9°C
Humedad: 88%
Baromètro: 1022 hPa
Nublado: Parcialmente Nublado
Visibilidad: 4 km
detalles de la nube: Parcialmente Nublado
EBOS 200450Z 32003KT 300V360 3500 BR NSC 11/09 Q1022 TEMPO 2000

Guión original por  Saratoga-weather.org Adaptado para la plantilla por  Weerstation Leuven

Usted encontrará nuestra información del tiempo también en:

Weather Underground

Iberian Peninsula Weather Network